Time;durP1;ratioP1;P1;durP2;ratioP2;P2;SDS_P1;SDS_P2;PMS_P1;PMS_P2;Temp;Humidity;BMP_temperature;BMP_pressure;BME280_temperature;BME280_humidity;BME280_pressure;Samples;Min_cycle;Max_cycle;Signal;HPM_P1;HPM_P2
2023/04/06 00:00:54;;;;;;;;;;;;;;;;;;136953;1272;23014;-83
2023/04/06 00:03:55;;;;;;;;;;;;;;;;;;137013;1272;22548;-83
2023/04/06 00:06:56;;;;;;;;;;;;;;;;;;136696;1272;22936;-83
2023/04/06 00:09:58;;;;;;;;;;;;;;;;;;136763;1272;25214;-84
2023/04/06 00:13:08;;;;;;;;;;;;;;;;;;136707;1272;25388;-83
2023/04/06 00:16:11;;;;;;;;;;;;;;;;;;136379;1271;22603;-81
2023/04/06 00:19:12;;;;;;;;;;;;;;;;;;137454;1272;24266;-81
2023/04/06 00:22:13;;;;;;;;;;;;;;;;;;136515;1272;22609;-82
2023/04/06 00:25:15;;;;;;;;;;;;;;;;;;136821;1272;22531;-80
2023/04/06 00:28:17;;;;;;;;;;;;;;;;;;137202;1272;22565;-80
2023/04/06 00:31:18;;;;;;;;;;;;;;;;;;137085;1272;22541;-80
2023/04/06 00:34:23;;;;;;;;;;;;;;;;;;137252;1272;24119;-81
2023/04/06 00:37:24;;;;;;;;;;;;;;;;;;136343;1272;22539;-81
2023/04/06 00:40:28;;;;;;;;;;;;;;;;;;137232;1272;22488;-82
2023/04/06 00:43:29;;;;;;;;;;;;;;;;;;136216;1271;22887;-81
2023/04/06 00:46:30;;;;;;;;;;;;;;;;;;136628;1272;22510;-84
2023/04/06 00:49:34;;;;;;;;;;;;;;;;;;136570;1272;22525;-81
2023/04/06 00:52:35;;;;;;;;;;;;;;;;;;136283;1272;25914;-80
2023/04/06 00:55:36;;;;;;;;;;;;;;;;;;137440;1272;22535;-81
2023/04/06 00:58:38;;;;;;;;;;;;;;;;;;136770;1272;22543;-82
2023/04/06 01:01:39;;;;;;;;;;;;;;;;;;136897;1272;22545;-81
2023/04/06 01:04:40;;;;;;;;;;;;;;;;;;137408;1272;22501;-82
2023/04/06 01:07:41;;;;;;;;;;;;;;;;;;136972;1272;22516;-82
2023/04/06 01:10:42;;;;;;;;;;;;;;;;;;136876;1272;22532;-81
2023/04/06 01:13:43;;;;;;;;;;;;;;;;;;137555;1272;22514;-82
2023/04/06 01:16:44;;;;;;;;;;;;;;;;;;136973;1272;22576;-82
2023/04/06 01:19:45;;;;;;;;;;;;;;;;;;136915;1272;22885;-83
2023/04/06 01:22:46;;;;;;;;;;;;;;;;;;137121;1272;23157;-84
2023/04/06 01:25:47;;;;;;;;;;;;;;;;;;137211;1272;22585;-83
2023/04/06 01:28:48;;;;;;;;;;;;;;;;;;137165;1272;22535;-83
2023/04/06 01:31:49;;;;;;;;;;;;;;;;;;137227;1272;24284;-81
2023/04/06 01:34:50;;;;;;;;;;;;;;;;;;137123;1272;22563;-81
2023/04/06 01:37:52;;;;;;;;;;;;;;;;;;136972;1272;22517;-80
2023/04/06 01:40:53;;;;;;;;;;;;;;;;;;137298;1272;22463;-85
2023/04/06 01:43:54;;;;;;;;;;;;;;;;;;137405;1272;22489;-83
2023/04/06 01:46:55;;;;;;;;;;;;;;;;;;137018;1272;22499;-80
2023/04/06 01:49:56;;;;;;;;;;;;;;;;;;137210;1272;22452;-79
2023/04/06 01:52:57;;;;;;;;;;;;;;;;;;137468;1272;22849;-83
2023/04/06 01:55:58;;;;;;;;;;;;;;;;;;137033;1272;22493;-80
2023/04/06 01:58:59;;;;;;;;;;;;;;;;;;136989;1272;25212;-81
2023/04/06 02:02:00;;;;;;;;;;;;;;;;;;137556;1272;22509;-81
2023/04/06 02:05:01;;;;;;;;;;;;;;;;;;136832;1272;22583;-81
2023/04/06 02:08:02;;;;;;;;;;;;;;;;;;136826;1272;22537;-80
2023/04/06 02:11:03;;;;;;;;;;;;;;;;;;137574;1272;22513;-81
2023/04/06 02:14:04;;;;;;;;;;;;;;;;;;136670;1272;22544;-81
2023/04/06 02:17:05;;;;;;;;;;;;;;;;;;136908;1272;22488;-81
2023/04/06 02:20:06;;;;;;;;;;;;;;;;;;137483;1272;22516;-81
2023/04/06 02:23:07;;;;;;;;;;;;;;;;;;136989;1272;22535;-81
2023/04/06 02:26:08;;;;;;;;;;;;;;;;;;137027;1272;22529;-81
2023/04/06 02:29:10;;;;;;;;;;;;;;;;;;137354;1272;22511;-81
2023/04/06 02:32:11;;;;;;;;;;;;;;;;;;137033;1272;22517;-81
2023/04/06 02:35:12;;;;;;;;;;;;;;;;;;136777;1272;22541;-81
2023/04/06 02:38:14;;;;;;;;;;;;;;;;;;136909;1272;22511;-82
2023/04/06 02:41:15;;;;;;;;;;;;;;;;;;136916;1272;22505;-82
2023/04/06 02:44:16;;;;;;;;;;;;;;;;;;136763;1272;22560;-82
2023/04/06 02:47:17;;;;;;;;;;;;;;;;;;136727;1272;22536;-81
2023/04/06 02:50:18;;;;;;;;;;;;;;;;;;136437;1272;23000;-82
2023/04/06 02:53:19;;;;;;;;;;;;;;;;;;136599;1272;22520;-82
2023/04/06 02:56:21;;;;;;;;;;;;;;;;;;136348;1272;23201;-82
2023/04/06 02:59:22;;;;;;;;;;;;;;;;;;136641;1272;22627;-82
2023/04/06 03:02:23;;;;;;;;;;;;;;;;;;136932;1272;22511;-81
2023/04/06 03:05:27;;;;;;;;;;;;;;;;;;136382;1272;22567;-81
2023/04/06 03:08:30;;;;;;;;;;;;;;;;;;136228;1272;22535;-81
2023/04/06 03:11:32;;;;;;;;;;;;;;;;;;136345;1272;22962;-81
2023/04/06 03:14:34;;;;;;;;;;;;;;;;;;136162;1272;22523;-81
2023/04/06 03:17:35;;;;;;;;;;;;;;;;;;136518;1272;22536;-81
2023/04/06 03:20:38;;;;;;;;;;;;;;;;;;136085;1272;22574;-82
2023/04/06 03:23:42;;;;;;;;;;;;;;;;;;136287;1272;25451;-82
2023/04/06 03:26:43;;;;;;;;;;;;;;;;;;136788;1272;22513;-83
2023/04/06 03:29:44;;;;;;;;;;;;;;;;;;137020;1272;22545;-82
2023/04/06 03:32:45;;;;;;;;;;;;;;;;;;137414;1272;22866;-82
2023/04/06 03:35:46;;;;;;;;;;;;;;;;;;136807;1272;22506;-83
2023/04/06 03:38:47;;;;;;;;;;;;;;;;;;136824;1268;24186;-81
2023/04/06 03:41:48;;;;;;;;;;;;;;;;;;136262;1272;22533;-81
2023/04/06 03:44:49;;;;;;;;;;;;;;;;;;136340;1272;22552;-81
2023/04/06 03:47:50;;;;;;;;;;;;;;;;;;136513;1272;22550;-81
2023/04/06 03:50:54;;;;;;;;;;;;;;;;;;136398;1272;22519;-82
2023/04/06 03:53:56;;;;;;;;;;;;;;;;;;136566;1272;22521;-82
2023/04/06 03:57:01;;;;;;;;;;;;;;;;;;136878;1272;23084;-82
2023/04/06 04:00:03;;;;;;;;;;;;;;;;;;136951;1272;25336;-82
2023/04/06 04:03:07;;;;;;;;;;;;;;;;;;137139;1272;22554;-81
2023/04/06 04:06:08;;;;;;;;;;;;;;;;;;137628;1272;22309;-82
2023/04/06 04:09:10;;;;;;;;;;;;;;;;;;137656;1272;22535;-81
2023/04/06 04:12:11;;;;;;;;;;;;;;;;;;137609;1272;22392;-80
2023/04/06 04:15:12;;;;;;;;;;;;;;;;;;137586;1272;22347;-80
2023/04/06 04:18:14;;;;;;;;;;;;;;;;;;137519;1272;22272;-83
2023/04/06 04:21:15;;;;;;;;;;;;;;;;;;137561;1272;22804;-81
2023/04/06 04:24:17;;;;;;;;;;;;;;;;;;137587;1272;22928;-82
2023/04/06 04:27:18;;;;;;;;;;;;;;;;;;137591;1270;22318;-81
2023/04/06 04:30:19;;;;;;;;;;;;;;;;;;137581;1272;22490;-82
2023/04/06 04:33:21;;;;;;;;;;;;;;;;;;137635;1272;22343;-81
2023/04/06 04:36:23;;;;;;;;;;;;;;;;;;137602;1272;22710;-80
2023/04/06 04:39:24;;;;;;;;;;;;;;;;;;137627;1272;22321;-79
2023/04/06 04:42:25;;;;;;;;;;;;;;;;;;137586;1272;22417;-79
2023/04/06 04:45:26;;;;;;;;;;;;;;;;;;137602;1272;22316;-81
2023/04/06 04:48:29;;;;;;;;;;;;;;;;;;137601;1272;22332;-82
2023/04/06 04:51:31;;;;;;;;;;;;;;;;;;137344;1272;22524;-83
2023/04/06 04:54:32;;;;;;;;;;;;;;;;;;137621;1272;22495;-82
2023/04/06 04:57:33;;;;;;;;;;;;;;;;;;137338;1272;22537;-83
2023/04/06 05:00:34;;;;;;;;;;;;;;;;;;137369;1272;22532;-79
2023/04/06 05:03:35;;;;;;;;;;;;;;;;;;137639;1272;23162;-80
2023/04/06 05:06:36;;;;;;;;;;;;;;;;;;137600;1272;22356;-80
2023/04/06 05:09:37;;;;;;;;;;;;;;;;;;136889;1272;22564;-78
2023/04/06 05:12:38;;;;;;;;;;;;;;;;;;137367;1272;22515;-79
2023/04/06 05:15:40;;;;;;;;;;;;;;;;;;137142;1272;23108;-79
2023/04/06 05:18:41;;;;;;;;;;;;;;;;;;137591;1272;22305;-78
2023/04/06 05:21:42;;;;;;;;;;;;;;;;;;137613;1272;22337;-79
2023/04/06 05:24:43;;;;;;;;;;;;;;;;;;137549;1272;22309;-79
2023/04/06 05:27:44;;;;;;;;;;;;;;;;;;137575;1272;22429;-79
2023/04/06 05:30:46;;;;;;;;;;;;;;;;;;137572;1272;22437;-79
2023/04/06 05:33:47;;;;;;;;;;;;;;;;;;137546;1272;22311;-78
2023/04/06 05:36:48;;;;;;;;;;;;;;;;;;137230;1272;22494;-79
2023/04/06 05:39:49;;;;;;;;;;;;;;;;;;137576;1272;22296;-79
2023/04/06 05:42:51;;;;;;;;;;;;;;;;;;137558;1272;22383;-78
2023/04/06 05:45:52;;;;;;;;;;;;;;;;;;137585;1272;22336;-79
2023/04/06 05:48:53;;;;;;;;;;;;;;;;;;137582;1272;22813;-78
2023/04/06 05:51:57;;;;;;;;;;;;;;;;;;137576;1272;22724;-78
2023/04/06 05:54:58;;;;;;;;;;;;;;;;;;137592;1272;22938;-78
2023/04/06 05:57:59;;;;;;;;;;;;;;;;;;137582;1272;22697;-79
2023/04/06 06:01:00;;;;;;;;;;;;;;;;;;137588;1272;22307;-78
2023/04/06 06:04:01;;;;;;;;;;;;;;;;;;137613;1272;22293;-78
2023/04/06 06:07:02;;;;;;;;;;;;;;;;;;137593;1272;22906;-79
2023/04/06 06:10:03;;;;;;;;;;;;;;;;;;137009;1272;22521;-78
2023/04/06 06:13:04;;;;;;;;;;;;;;;;;;137553;1272;22501;-79
2023/04/06 06:16:05;;;;;;;;;;;;;;;;;;137133;1272;22483;-79
2023/04/06 06:19:06;;;;;;;;;;;;;;;;;;137570;1272;22322;-79
2023/04/06 06:22:07;;;;;;;;;;;;;;;;;;137626;1272;22353;-79
2023/04/06 06:25:08;;;;;;;;;;;;;;;;;;137532;1272;22507;-80
2023/04/06 06:28:10;;;;;;;;;;;;;;;;;;137035;1272;22520;-78
2023/04/06 06:31:12;;;;;;;;;;;;;;;;;;137628;1272;22324;-78
2023/04/06 06:34:13;;;;;;;;;;;;;;;;;;137594;1272;22320;-79
2023/04/06 06:37:14;;;;;;;;;;;;;;;;;;137623;1272;22305;-78
2023/04/06 06:40:17;;;;;;;;;;;;;;;;;;137650;1265;22380;-79
2023/04/06 06:43:18;;;;;;;;;;;;;;;;;;137613;1272;22375;-79
2023/04/06 06:46:19;;;;;;;;;;;;;;;;;;137438;1272;22580;-79
2023/04/06 06:49:20;;;;;;;;;;;;;;;;;;137587;1272;22549;-79
2023/04/06 06:52:23;;;;;;;;;;;;;;;;;;137580;1272;22828;-79
2023/04/06 06:55:24;;;;;;;;;;;;;;;;;;136825;1272;22512;-80
2023/04/06 06:58:26;;;;;;;;;;;;;;;;;;136882;1272;187658;-79
2023/04/06 07:01:27;;;;;;;;;;;;;;;;;;136955;1272;22555;-81
2023/04/06 07:04:28;;;;;;;;;;;;;;;;;;137347;1272;22652;-81
2023/04/06 07:07:29;;;;;;;;;;;;;;;;;;137588;1272;22332;-80
2023/04/06 07:10:30;;;;;;;;;;;;;;;;;;137600;1272;22319;-80
2023/04/06 07:13:31;;;;;;;;;;;;;;;;;;137532;1272;22364;-78
2023/04/06 07:16:32;;;;;;;;;;;;;;;;;;137600;1261;22372;-79
2023/04/06 07:19:33;;;;;;;;;;;;;;;;;;137609;1272;22445;-79
2023/04/06 07:22:34;;;;;;;;;;;;;;;;;;137571;1272;22900;-80
2023/04/06 07:25:35;;;;;;;;;;;;;;;;;;136478;1272;22593;-82
2023/04/06 07:28:37;;;;;;;;;;;;;;;;;;137152;1272;22585;-80
2023/04/06 07:31:38;;;;;;;;;;;;;;;;;;137524;1272;22684;-80
2023/04/06 07:34:39;;;;;;;;;;;;;;;;;;137044;1265;22532;-79
2023/04/06 07:37:40;;;;;;;;;;;;;;;;;;137585;1272;22290;-79
2023/04/06 07:40:41;;;;;;;;;;;;;;;;;;137147;1272;22521;-79
2023/04/06 07:43:42;;;;;;;;;;;;;;;;;;137135;1272;22518;-80
2023/04/06 07:46:43;;;;;;;;;;;;;;;;;;137616;1272;22676;-80
2023/04/06 07:49:45;;;;;;;;;;;;;;;;;;137582;1272;22277;-80
2023/04/06 07:52:46;;;;;;;;;;;;;;;;;;137564;1272;22391;-80
2023/04/06 07:55:47;;;;;;;;;;;;;;;;;;137596;1272;22334;-80
2023/04/06 07:58:48;;;;;;;;;;;;;;;;;;137080;1272;22545;-81
2023/04/06 08:01:49;;;;;;;;;;;;;;;;;;137624;1272;22949;-80
2023/04/06 08:04:50;;;;;;;;;;;;;;;;;;137613;1265;22360;-79
2023/04/06 08:11:28;;;;;;;;;;;;;;;;;;137544;1272;22508;-79
2023/04/06 08:14:29;;;;;;;;;;;;;;;;;;137578;1272;22377;-80
2023/04/06 08:17:30;;;;;;;;;;;;;;;;;;137053;1272;22490;-79
2023/04/06 08:20:32;;;;;;;;;;;;;;;;;;137567;1272;22345;-79
2023/04/06 08:23:33;;;;;;;;;;;;;;;;;;137561;1272;22391;-80
2023/04/06 08:26:34;;;;;;;;;;;;;;;;;;137548;1272;22301;-79
2023/04/06 08:29:35;;;;;;;;;;;;;;;;;;137590;1272;22383;-79
2023/04/06 08:32:36;;;;;;;;;;;;;;;;;;137543;1272;22317;-79
2023/04/06 08:35:37;;;;;;;;;;;;;;;;;;137571;1272;22881;-78
2023/04/06 08:38:38;;;;;;;;;;;;;;;;;;137604;1272;22369;-80
2023/04/06 08:41:39;;;;;;;;;;;;;;;;;;137597;1272;22378;-83
2023/04/06 08:44:41;;;;;;;;;;;;;;;;;;137588;1272;22332;-78
2023/04/06 08:47:44;;;;;;;;;;;;;;;;;;137609;1272;22686;-80
2023/04/06 08:50:45;;;;;;;;;;;;;;;;;;137312;1272;22613;-80
2023/04/06 08:53:46;;;;;;;;;;;;;;;;;;137619;1272;22327;-82
2023/04/06 08:56:47;;;;;;;;;;;;;;;;;;137041;1272;22474;-80
2023/04/06 08:59:48;;;;;;;;;;;;;;;;;;137304;1272;23153;-78
2023/04/06 09:02:49;;;;;;;;;;;;;;;;;;137573;1272;22314;-81
2023/04/06 09:05:51;;;;;;;;;;;;;;;;;;137511;1272;22504;-79
2023/04/06 09:08:52;;;;;;;;;;;;;;;;;;136879;1272;23017;-80
2023/04/06 09:11:53;;;;;;;;;;;;;;;;;;137289;1272;22457;-79
2023/04/06 09:14:54;;;;;;;;;;;;;;;;;;137211;1272;23277;-79
2023/04/06 09:17:55;;;;;;;;;;;;;;;;;;136790;1272;22509;-79
2023/04/06 09:20:56;;;;;;;;;;;;;;;;;;137629;1272;22325;-80
2023/04/06 09:23:57;;;;;;;;;;;;;;;;;;137612;1272;22351;-80
2023/04/06 09:26:58;;;;;;;;;;;;;;;;;;137609;1272;22694;-80
2023/04/06 09:29:59;;;;;;;;;;;;;;;;;;136811;1272;22582;-78
2023/04/06 09:33:00;;;;;;;;;;;;;;;;;;137594;1272;22769;-81
2023/04/06 09:36:01;;;;;;;;;;;;;;;;;;136840;1272;22500;-81
2023/04/06 09:39:02;;;;;;;;;;;;;;;;;;137622;1272;22786;-80
2023/04/06 09:42:04;;;;;;;;;;;;;;;;;;137612;1272;22394;-79
2023/04/06 09:45:05;;;;;;;;;;;;;;;;;;137584;1272;22677;-81
2023/04/06 09:48:06;;;;;;;;;;;;;;;;;;137544;1272;22335;-79
2023/04/06 09:51:07;;;;;;;;;;;;;;;;;;137582;1272;22320;-78
2023/04/06 09:54:08;;;;;;;;;;;;;;;;;;137576;1272;22413;-78
2023/04/06 09:57:09;;;;;;;;;;;;;;;;;;137572;1272;22290;-80
2023/04/06 10:00:11;;;;;;;;;;;;;;;;;;137593;1272;22396;-80
2023/04/06 10:03:12;;;;;;;;;;;;;;;;;;137528;1272;22334;-81
2023/04/06 10:06:13;;;;;;;;;;;;;;;;;;137577;1272;22354;-80
2023/04/06 10:09:14;;;;;;;;;;;;;;;;;;137556;1272;22350;-79
2023/04/06 10:12:15;;;;;;;;;;;;;;;;;;137586;1272;22410;-79
2023/04/06 10:15:16;;;;;;;;;;;;;;;;;;137579;1272;22765;-78
2023/04/06 10:18:17;;;;;;;;;;;;;;;;;;137590;1272;22352;-79
2023/04/06 10:21:18;;;;;;;;;;;;;;;;;;137579;1272;22322;-79
2023/04/06 10:24:19;;;;;;;;;;;;;;;;;;137578;1272;22342;-80
2023/04/06 10:27:20;;;;;;;;;;;;;;;;;;137564;1272;22805;-80
2023/04/06 10:30:21;;;;;;;;;;;;;;;;;;137258;1272;22536;-80
2023/04/06 10:33:23;;;;;;;;;;;;;;;;;;137489;1272;22497;-79
2023/04/06 10:36:25;;;;;;;;;;;;;;;;;;137413;1272;22520;-81
2023/04/06 10:39:27;;;;;;;;;;;;;;;;;;137068;1272;22546;-81
2023/04/06 10:42:28;;;;;;;;;;;;;;;;;;137605;1268;22436;-81
2023/04/06 10:45:29;;;;;;;;;;;;;;;;;;137207;1272;22514;-79
2023/04/06 10:48:30;;;;;;;;;;;;;;;;;;137303;1272;22507;-79
2023/04/06 10:51:32;;;;;;;;;;;;;;;;;;137295;1272;23453;-80
2023/04/06 10:54:33;;;;;;;;;;;;;;;;;;137171;1272;22484;-80
2023/04/06 10:57:36;;;;;;;;;;;;;;;;;;137309;1272;22558;-80
2023/04/06 11:00:37;;;;;;;;;;;;;;;;;;137653;1272;22384;-80
2023/04/06 11:03:38;;;;;;;;;;;;;;;;;;137569;1272;22373;-80
2023/04/06 11:06:39;;;;;;;;;;;;;;;;;;137526;1272;22340;-80
2023/04/06 11:09:42;;;;;;;;;;;;;;;;;;137523;1272;22272;-80
2023/04/06 11:12:43;;;;;;;;;;;;;;;;;;137561;1272;22385;-79
2023/04/06 11:15:44;;;;;;;;;;;;;;;;;;137585;1272;22348;-79
2023/04/06 11:18:45;;;;;;;;;;;;;;;;;;137609;1260;22274;-80
2023/04/06 11:21:47;;;;;;;;;;;;;;;;;;137490;1272;22517;-79
2023/04/06 11:24:48;;;;;;;;;;;;;;;;;;136638;1272;22894;-80
2023/04/06 11:27:50;;;;;;;;;;;;;;;;;;137526;1272;22546;-79
2023/04/06 11:30:51;;;;;;;;;;;;;;;;;;137628;1272;22758;-79
2023/04/06 11:33:52;;;;;;;;;;;;;;;;;;137599;1272;22345;-79
2023/04/06 11:36:53;;;;;;;;;;;;;;;;;;137586;1272;22363;-80
2023/04/06 11:39:54;;;;;;;;;;;;;;;;;;137471;1272;22325;-82
2023/04/06 11:42:55;;;;;;;;;;;;;;;;;;137654;1272;22406;-80
2023/04/06 11:45:56;;;;;;;;;;;;;;;;;;137487;1272;22603;-83
2023/04/06 11:48:57;;;;;;;;;;;;;;;;;;136810;1272;24213;-81
2023/04/06 11:52:00;;;;;;;;;;;;;;;;;;137611;1272;22317;-79
2023/04/06 11:55:01;;;;;;;;;;;;;;;;;;137623;1272;22749;-78
2023/04/06 11:58:02;;;;;;;;;;;;;;;;;;137568;1272;22877;-80
2023/04/06 12:01:03;;;;;;;;;;;;;;;;;;137531;1272;22310;-78
2023/04/06 12:04:04;;;;;;;;;;;;;;;;;;137555;1268;22808;-78
2023/04/06 12:07:05;;;;;;;;;;;;;;;;;;137566;1272;22341;-79
2023/04/06 12:10:07;;;;;;;;;;;;;;;;;;137579;1272;22657;-80
2023/04/06 12:13:08;;;;;;;;;;;;;;;;;;137539;1272;22405;-80
2023/04/06 12:16:09;;;;;;;;;;;;;;;;;;137590;1272;22349;-80
2023/04/06 12:19:10;;;;;;;;;;;;;;;;;;137566;1272;22819;-81
2023/04/06 12:22:11;;;;;;;;;;;;;;;;;;137612;1270;22274;-82
2023/04/06 12:25:12;;;;;;;;;;;;;;;;;;137576;1272;22818;-80
2023/04/06 12:28:13;;;;;;;;;;;;;;;;;;137560;1272;22663;-78
2023/04/06 12:31:14;;;;;;;;;;;;;;;;;;137553;1272;22370;-79
2023/04/06 12:34:15;;;;;;;;;;;;;;;;;;137578;1272;22469;-82
2023/04/06 12:37:16;;;;;;;;;;;;;;;;;;137596;1272;23068;-81
2023/04/06 12:40:17;;;;;;;;;;;;;;;;;;137595;1272;22276;-80
2023/04/06 12:43:18;;;;;;;;;;;;;;;;;;137541;1272;22378;-80
2023/04/06 12:46:19;;;;;;;;;;;;;;;;;;137594;1272;22642;-80
2023/04/06 12:49:21;;;;;;;;;;;;;;;;;;137575;1272;22393;-80
2023/04/06 12:52:22;;;;;;;;;;;;;;;;;;137574;1272;22341;-81
2023/04/06 12:55:23;;;;;;;;;;;;;;;;;;137609;1272;22502;-79
2023/04/06 12:58:26;;;;;;;;;;;;;;;;;;137589;1272;22342;-80
2023/04/06 13:01:27;;;;;;;;;;;;;;;;;;137602;1272;23049;-80
2023/04/06 13:04:28;;;;;;;;;;;;;;;;;;137642;1272;22329;-79
2023/04/06 13:07:29;;;;;;;;;;;;;;;;;;137592;1272;22320;-80
2023/04/06 13:10:30;;;;;;;;;;;;;;;;;;137604;1272;22801;-80
2023/04/06 13:13:35;;;;;;;;;;;;;;;;;;137598;1272;23338;-78
2023/04/06 13:16:36;;;;;;;;;;;;;;;;;;137603;1272;22327;-80
2023/04/06 13:19:37;;;;;;;;;;;;;;;;;;137573;1272;22328;-79
2023/04/06 13:22:38;;;;;;;;;;;;;;;;;;137575;1272;22309;-82
2023/04/06 13:25:39;;;;;;;;;;;;;;;;;;137587;1272;22332;-80
2023/04/06 13:28:40;;;;;;;;;;;;;;;;;;137584;1272;22341;-79
2023/04/06 13:31:41;;;;;;;;;;;;;;;;;;137547;1272;22319;-79
2023/04/06 13:34:44;;;;;;;;;;;;;;;;;;137565;1272;22317;-79
2023/04/06 13:37:45;;;;;;;;;;;;;;;;;;137592;1272;22277;-82
2023/04/06 13:40:46;;;;;;;;;;;;;;;;;;137598;1272;22390;-81
2023/04/06 13:43:47;;;;;;;;;;;;;;;;;;137598;1272;22310;-81
2023/04/06 13:46:49;;;;;;;;;;;;;;;;;;137354;1272;22492;-81
2023/04/06 13:49:50;;;;;;;;;;;;;;;;;;137631;1272;22311;-81
2023/04/06 13:52:51;;;;;;;;;;;;;;;;;;137581;1272;22543;-81
2023/04/06 13:55:52;;;;;;;;;;;;;;;;;;137338;1272;22507;-82
2023/04/06 13:58:54;;;;;;;;;;;;;;;;;;137378;1272;22538;-81
2023/04/06 14:01:55;;;;;;;;;;;;;;;;;;137621;1272;22316;-79
2023/04/06 14:04:56;;;;;;;;;;;;;;;;;;137119;1272;22504;-81
2023/04/06 14:07:57;;;;;;;;;;;;;;;;;;137639;1272;22890;-80
2023/04/06 14:10:58;;;;;;;;;;;;;;;;;;137666;1272;22440;-82
2023/04/06 14:13:59;;;;;;;;;;;;;;;;;;137640;1272;22375;-81
2023/04/06 14:17:00;;;;;;;;;;;;;;;;;;137202;1272;22513;-81
2023/04/06 14:20:02;;;;;;;;;;;;;;;;;;137662;1272;22269;-82
2023/04/06 14:23:03;;;;;;;;;;;;;;;;;;137668;1272;22347;-81
2023/04/06 14:26:04;;;;;;;;;;;;;;;;;;137668;1272;22340;-81
2023/04/06 14:29:05;;;;;;;;;;;;;;;;;;137662;1272;22280;-81
2023/04/06 14:32:06;;;;;;;;;;;;;;;;;;137632;1272;22781;-81
2023/04/06 14:35:07;;;;;;;;;;;;;;;;;;137664;1272;22383;-82
2023/04/06 14:38:08;;;;;;;;;;;;;;;;;;137423;1272;22535;-79
2023/04/06 14:41:10;;;;;;;;;;;;;;;;;;137648;1272;22398;-81
2023/04/06 14:44:12;;;;;;;;;;;;;;;;;;137654;1272;22271;-82
2023/04/06 14:47:15;;;;;;;;;;;;;;;;;;137115;1272;23140;-81
2023/04/06 14:50:16;;;;;;;;;;;;;;;;;;137413;1272;22539;-80
2023/04/06 14:53:17;;;;;;;;;;;;;;;;;;137224;1269;22505;-81
2023/04/06 14:56:20;;;;;;;;;;;;;;;;;;137001;1272;22953;-81
2023/04/06 14:59:21;;;;;;;;;;;;;;;;;;137268;1271;22557;-81
2023/04/06 15:02:22;;;;;;;;;;;;;;;;;;137469;1272;22503;-81
2023/04/06 15:05:23;;;;;;;;;;;;;;;;;;137008;1272;22643;-81
2023/04/06 15:08:24;;;;;;;;;;;;;;;;;;137019;1272;23005;-81
2023/04/06 15:11:25;;;;;;;;;;;;;;;;;;137656;1272;23028;-81
2023/04/06 15:14:26;;;;;;;;;;;;;;;;;;136957;1268;22512;-81
2023/04/06 15:17:29;;;;;;;;;;;;;;;;;;136971;1272;22507;-80
2023/04/06 15:20:30;;;;;;;;;;;;;;;;;;137562;1272;22471;-80
2023/04/06 15:23:32;;;;;;;;;;;;;;;;;;137122;1272;22504;-81
2023/04/06 15:26:33;;;;;;;;;;;;;;;;;;137058;1272;22870;-80
2023/04/06 15:29:35;;;;;;;;;;;;;;;;;;137491;1272;22537;-80
2023/04/06 15:32:36;;;;;;;;;;;;;;;;;;137391;1268;22485;-81
2023/04/06 15:35:39;;;;;;;;;;;;;;;;;;136969;1272;22513;-81
2023/04/06 15:38:41;;;;;;;;;;;;;;;;;;137484;1272;22522;-81
2023/04/06 15:41:42;;;;;;;;;;;;;;;;;;137667;1272;22555;-81
2023/04/06 15:44:43;;;;;;;;;;;;;;;;;;137110;1272;22550;-83
2023/04/06 15:47:44;;;;;;;;;;;;;;;;;;137133;1272;23016;-82
2023/04/06 15:50:46;;;;;;;;;;;;;;;;;;137659;1272;22505;-81
2023/04/06 15:53:47;;;;;;;;;;;;;;;;;;136912;1272;22510;-81
2023/04/06 15:56:48;;;;;;;;;;;;;;;;;;136947;1272;22544;-83
2023/04/06 15:59:49;;;;;;;;;;;;;;;;;;137445;1272;22542;-81
2023/04/06 16:02:50;;;;;;;;;;;;;;;;;;137179;1272;22512;-82
2023/04/06 16:05:55;;;;;;;;;;;;;;;;;;136823;1272;22509;-79
2023/04/06 16:08:56;;;;;;;;;;;;;;;;;;137208;1272;22543;-80
2023/04/06 16:11:57;;;;;;;;;;;;;;;;;;137475;1272;23291;-81
2023/04/06 16:14:58;;;;;;;;;;;;;;;;;;136908;1272;22492;-82
2023/04/06 16:17:59;;;;;;;;;;;;;;;;;;136870;1272;24872;-80
2023/04/06 16:21:00;;;;;;;;;;;;;;;;;;137588;1272;22480;-81
2023/04/06 16:24:01;;;;;;;;;;;;;;;;;;137088;1272;22507;-82
2023/04/06 16:27:02;;;;;;;;;;;;;;;;;;137049;1272;23029;-81
2023/04/06 16:30:03;;;;;;;;;;;;;;;;;;137608;1272;22552;-81
2023/04/06 16:33:05;;;;;;;;;;;;;;;;;;137236;1271;22484;-81
2023/04/06 16:36:06;;;;;;;;;;;;;;;;;;136833;1272;22492;-81
2023/04/06 16:39:07;;;;;;;;;;;;;;;;;;137657;1272;22809;-82
2023/04/06 16:42:08;;;;;;;;;;;;;;;;;;137249;1272;22798;-81
2023/04/06 16:45:10;;;;;;;;;;;;;;;;;;136901;1272;22544;-81
2023/04/06 16:48:11;;;;;;;;;;;;;;;;;;137660;1272;22299;-80
2023/04/06 16:51:12;;;;;;;;;;;;;;;;;;137661;1272;22806;-81
2023/04/06 16:54:13;;;;;;;;;;;;;;;;;;136967;1272;22504;-82
2023/04/06 16:57:14;;;;;;;;;;;;;;;;;;137674;1271;22326;-83
2023/04/06 17:00:15;;;;;;;;;;;;;;;;;;137648;1272;22338;-82
2023/04/06 17:03:16;;;;;;;;;;;;;;;;;;137286;1272;23134;-82
2023/04/06 17:06:17;;;;;;;;;;;;;;;;;;137112;1272;22567;-78
2023/04/06 17:09:18;;;;;;;;;;;;;;;;;;137666;1272;22333;-80
2023/04/06 17:12:19;;;;;;;;;;;;;;;;;;137281;1272;23353;-81
2023/04/06 17:15:23;;;;;;;;;;;;;;;;;;137000;1272;22603;-80
2023/04/06 17:18:24;;;;;;;;;;;;;;;;;;137229;1272;25908;-84
2023/04/06 17:21:25;;;;;;;;;;;;;;;;;;137291;1272;23061;-84
2023/04/06 17:24:26;;;;;;;;;;;;;;;;;;137044;1272;22556;-83
2023/04/06 17:27:27;;;;;;;;;;;;;;;;;;137360;1272;22521;-82
2023/04/06 17:30:28;;;;;;;;;;;;;;;;;;137309;1272;23086;-80
2023/04/06 17:33:31;;;;;;;;;;;;;;;;;;136759;1272;22549;-82
2023/04/06 17:36:32;;;;;;;;;;;;;;;;;;137336;1272;22518;-80
2023/04/06 17:39:33;;;;;;;;;;;;;;;;;;136475;1272;22510;-82
2023/04/06 17:42:34;;;;;;;;;;;;;;;;;;136772;1272;22514;-82
2023/04/06 17:45:35;;;;;;;;;;;;;;;;;;137023;1272;22512;-82
2023/04/06 17:48:36;;;;;;;;;;;;;;;;;;136973;1272;22529;-82
2023/04/06 17:51:39;;;;;;;;;;;;;;;;;;137236;1272;22525;-82
2023/04/06 17:54:40;;;;;;;;;;;;;;;;;;137323;1272;22882;-84
2023/04/06 17:57:42;;;;;;;;;;;;;;;;;;136771;1272;22566;-84
2023/04/06 18:00:43;;;;;;;;;;;;;;;;;;137116;1272;22550;-84
2023/04/06 18:03:44;;;;;;;;;;;;;;;;;;137686;1262;22308;-84
2023/04/06 18:06:45;;;;;;;;;;;;;;;;;;136912;1272;22540;-83
2023/04/06 18:09:46;;;;;;;;;;;;;;;;;;137293;1271;22533;-84
2023/04/06 18:12:47;;;;;;;;;;;;;;;;;;137683;1272;22447;-83
2023/04/06 18:15:48;;;;;;;;;;;;;;;;;;137136;1265;22969;-83
2023/04/06 18:18:49;;;;;;;;;;;;;;;;;;136934;1272;22546;-83
2023/04/06 18:21:50;;;;;;;;;;;;;;;;;;136520;1271;23343;-84
2023/04/06 18:24:51;;;;;;;;;;;;;;;;;;137205;1272;22515;-84
2023/04/06 18:27:52;;;;;;;;;;;;;;;;;;136925;1272;22529;-83
2023/04/06 18:30:54;;;;;;;;;;;;;;;;;;137103;1272;22526;-84
2023/04/06 18:33:55;;;;;;;;;;;;;;;;;;137285;1268;22963;-84
2023/04/06 18:36:56;;;;;;;;;;;;;;;;;;136861;1265;23039;-82
2023/04/06 18:39:57;;;;;;;;;;;;;;;;;;137197;1272;22540;-82
2023/04/06 18:42:58;;;;;;;;;;;;;;;;;;137514;1272;23011;-81
2023/04/06 18:46:00;;;;;;;;;;;;;;;;;;137044;1272;22513;-83
2023/04/06 18:49:01;;;;;;;;;;;;;;;;;;137046;1272;22520;-83
2023/04/06 18:52:03;;;;;;;;;;;;;;;;;;137688;1272;22472;-84
2023/04/06 18:55:04;;;;;;;;;;;;;;;;;;136987;1272;22483;-82
2023/04/06 18:58:05;;;;;;;;;;;;;;;;;;136901;1272;172668;-84
2023/04/06 19:01:06;;;;;;;;;;;;;;;;;;137533;1271;22516;-83
2023/04/06 19:04:07;;;;;;;;;;;;;;;;;;137109;1268;23044;-83
2023/04/06 19:07:09;;;;;;;;;;;;;;;;;;136926;1272;22493;-83
2023/04/06 19:10:10;;;;;;;;;;;;;;;;;;137445;1272;22524;-83
2023/04/06 19:13:11;;;;;;;;;;;;;;;;;;137348;1272;22542;-83
2023/04/06 19:16:12;;;;;;;;;;;;;;;;;;137066;1272;22865;-83
2023/04/06 19:19:13;;;;;;;;;;;;;;;;;;137177;1272;22498;-83
2023/04/06 19:22:14;;;;;;;;;;;;;;;;;;137522;1272;22541;-84
2023/04/06 19:25:15;;;;;;;;;;;;;;;;;;137061;1272;22573;-84
2023/04/06 19:28:16;;;;;;;;;;;;;;;;;;137036;1272;22556;-84
2023/04/06 19:31:17;;;;;;;;;;;;;;;;;;137313;1272;22574;-84
2023/04/06 19:34:19;;;;;;;;;;;;;;;;;;137176;1272;23043;-83
2023/04/06 19:37:20;;;;;;;;;;;;;;;;;;137674;1272;22863;-83
2023/04/06 19:40:21;;;;;;;;;;;;;;;;;;137644;1272;22319;-83
2023/04/06 19:43:22;;;;;;;;;;;;;;;;;;137151;1261;22498;-83
2023/04/06 19:46:23;;;;;;;;;;;;;;;;;;137358;1272;22509;-83
2023/04/06 19:49:27;;;;;;;;;;;;;;;;;;137555;1272;22776;-83
2023/04/06 19:52:28;;;;;;;;;;;;;;;;;;137238;1270;22515;-85
2023/04/06 19:55:29;;;;;;;;;;;;;;;;;;136986;1272;22502;-86
2023/04/06 19:58:30;;;;;;;;;;;;;;;;;;137313;1268;22518;-87
2023/04/06 20:01:31;;;;;;;;;;;;;;;;;;136873;1272;22530;-84
2023/04/06 20:04:32;;;;;;;;;;;;;;;;;;136949;1272;22496;-85
2023/04/06 20:07:36;;;;;;;;;;;;;;;;;;137486;1272;22576;-83
2023/04/06 20:10:37;;;;;;;;;;;;;;;;;;137236;1272;22490;-85
2023/04/06 20:13:38;;;;;;;;;;;;;;;;;;137611;1268;22332;-84
2023/04/06 20:16:39;;;;;;;;;;;;;;;;;;137425;1272;22530;-84
2023/04/06 20:19:40;;;;;;;;;;;;;;;;;;137093;1272;22499;-85